sensor_id;sensor_type;location;lat;lon;timestamp;pressure;altitude;pressure_sealevel;temperature;humidity
51781;BME280;37844;57.126;24.288;2023-02-14T00:01:07;102360.06;;;2.86;100.00
51781;BME280;37844;57.126;24.288;2023-02-14T00:03:32;102361.75;;;2.85;100.00
51781;BME280;37844;57.126;24.288;2023-02-14T00:06:03;102365.50;;;2.79;100.00
51781;BME280;37844;57.126;24.288;2023-02-14T00:08:29;102372.47;;;2.81;100.00
51781;BME280;37844;57.126;24.288;2023-02-14T00:10:54;102371.94;;;2.85;100.00
51781;BME280;37844;57.126;24.288;2023-02-14T00:13:20;102368.94;;;2.79;100.00
51781;BME280;37844;57.126;24.288;2023-02-14T00:15:46;102374.25;;;2.82;100.00
51781;BME280;37844;57.126;24.288;2023-02-14T00:18:11;102382.47;;;2.78;100.00
51781;BME280;37844;57.126;24.288;2023-02-14T00:20:36;102383.31;;;2.90;100.00
51781;BME280;37844;57.126;24.288;2023-02-14T00:23:01;102378.00;;;2.99;100.00
51781;BME280;37844;57.126;24.288;2023-02-14T00:25:27;102382.31;;;3.00;100.00
51781;BME280;37844;57.126;24.288;2023-02-14T00:27:52;102384.41;;;2.94;100.00
51781;BME280;37844;57.126;24.288;2023-02-14T00:30:19;102387.63;;;2.91;100.00
51781;BME280;37844;57.126;24.288;2023-02-14T00:32:44;102381.13;;;2.83;100.00
51781;BME280;37844;57.126;24.288;2023-02-14T00:35:10;102393.19;;;2.86;100.00
51781;BME280;37844;57.126;24.288;2023-02-14T00:37:35;102398.28;;;2.86;100.00
51781;BME280;37844;57.126;24.288;2023-02-14T00:40:01;102401.28;;;2.92;100.00
51781;BME280;37844;57.126;24.288;2023-02-14T00:42:26;102399.72;;;2.82;100.00
51781;BME280;37844;57.126;24.288;2023-02-14T00:44:51;102394.53;;;2.81;100.00
51781;BME280;37844;57.126;24.288;2023-02-14T00:47:17;102406.06;;;2.75;100.00
51781;BME280;37844;57.126;24.288;2023-02-14T00:49:42;102410.03;;;2.72;100.00
51781;BME280;37844;57.126;24.288;2023-02-14T00:52:07;102417.19;;;2.78;100.00
51781;BME280;37844;57.126;24.288;2023-02-14T00:54:33;102429.06;;;2.77;100.00
51781;BME280;37844;57.126;24.288;2023-02-14T00:56:58;102433.06;;;2.73;100.00
51781;BME280;37844;57.126;24.288;2023-02-14T00:59:23;102434.16;;;2.65;100.00
51781;BME280;37844;57.126;24.288;2023-02-14T01:01:49;102431.50;;;2.64;100.00
51781;BME280;37844;57.126;24.288;2023-02-14T01:04:14;102428.06;;;2.63;100.00
51781;BME280;37844;57.126;24.288;2023-02-14T01:06:40;102435.28;;;2.57;100.00
51781;BME280;37844;57.126;24.288;2023-02-14T01:09:05;102444.34;;;2.65;100.00
51781;BME280;37844;57.126;24.288;2023-02-14T01:11:30;102447.47;;;2.61;100.00
51781;BME280;37844;57.126;24.288;2023-02-14T01:13:57;102449.00;;;2.71;100.00
51781;BME280;37844;57.126;24.288;2023-02-14T01:16:23;102446.00;;;2.65;100.00
51781;BME280;37844;57.126;24.288;2023-02-14T01:18:49;102444.25;;;2.64;100.00
51781;BME280;37844;57.126;24.288;2023-02-14T01:21:25;102450.22;;;2.64;100.00
51781;BME280;37844;57.126;24.288;2023-02-14T01:23:52;102454.63;;;2.67;100.00
51781;BME280;37844;57.126;24.288;2023-02-14T01:26:18;102458.19;;;2.69;100.00
51781;BME280;37844;57.126;24.288;2023-02-14T01:28:44;102461.06;;;2.62;100.00
51781;BME280;37844;57.126;24.288;2023-02-14T01:31:12;102453.09;;;2.69;100.00
51781;BME280;37844;57.126;24.288;2023-02-14T01:33:39;102458.28;;;2.70;100.00
51781;BME280;37844;57.126;24.288;2023-02-14T01:36:05;102464.16;;;2.69;100.00
51781;BME280;37844;57.126;24.288;2023-02-14T01:38:31;102469.13;;;2.68;100.00
51781;BME280;37844;57.126;24.288;2023-02-14T01:40:56;102467.50;;;2.68;100.00
51781;BME280;37844;57.126;24.288;2023-02-14T01:43:22;102470.03;;;2.57;100.00
51781;BME280;37844;57.126;24.288;2023-02-14T01:45:47;102482.50;;;2.53;100.00
51781;BME280;37844;57.126;24.288;2023-02-14T01:48:13;102477.31;;;2.52;100.00
51781;BME280;37844;57.126;24.288;2023-02-14T01:50:40;102481.94;;;2.46;100.00
51781;BME280;37844;57.126;24.288;2023-02-14T01:53:11;102478.75;;;2.60;100.00
51781;BME280;37844;57.126;24.288;2023-02-14T01:55:41;102475.13;;;2.68;100.00
51781;BME280;37844;57.126;24.288;2023-02-14T01:58:10;102477.00;;;2.71;100.00
51781;BME280;37844;57.126;24.288;2023-02-14T02:00:37;102480.56;;;2.61;100.00
51781;BME280;37844;57.126;24.288;2023-02-14T02:03:26;102481.75;;;2.54;100.00
51781;BME280;37844;57.126;24.288;2023-02-14T02:05:53;102471.34;;;2.63;100.00
51781;BME280;37844;57.126;24.288;2023-02-14T02:08:19;102469.25;;;2.69;100.00
51781;BME280;37844;57.126;24.288;2023-02-14T02:10:45;102476.56;;;2.65;100.00
51781;BME280;37844;57.126;24.288;2023-02-14T02:13:15;102474.34;;;2.69;100.00
51781;BME280;37844;57.126;24.288;2023-02-14T02:15:45;102480.09;;;2.55;100.00
51781;BME280;37844;57.126;24.288;2023-02-14T02:18:25;102485.31;;;2.57;100.00
51781;BME280;37844;57.126;24.288;2023-02-14T02:26:34;102486.47;;;2.38;100.00
51781;BME280;37844;57.126;24.288;2023-02-14T02:29:30;102490.47;;;2.46;100.00
51781;BME280;37844;57.126;24.288;2023-02-14T02:35:08;102492.03;;;2.56;100.00
51781;BME280;37844;57.126;24.288;2023-02-14T02:53:25;102525.06;;;2.32;100.00
51781;BME280;37844;57.126;24.288;2023-02-14T02:56:00;102521.19;;;2.26;100.00
51781;BME280;37844;57.126;24.288;2023-02-14T02:58:53;102527.03;;;2.25;100.00
51781;BME280;37844;57.126;24.288;2023-02-14T03:01:24;102531.06;;;2.33;100.00
51781;BME280;37844;57.126;24.288;2023-02-14T03:03:52;102521.56;;;2.42;100.00
51781;BME280;37844;57.126;24.288;2023-02-14T03:06:38;102527.31;;;2.51;100.00
51781;BME280;37844;57.126;24.288;2023-02-14T03:09:11;102531.66;;;2.52;100.00
51781;BME280;37844;57.126;24.288;2023-02-14T03:11:37;102531.31;;;2.48;100.00
51781;BME280;37844;57.126;24.288;2023-02-14T03:14:07;102524.72;;;2.62;100.00
51781;BME280;37844;57.126;24.288;2023-02-14T03:16:40;102532.88;;;2.58;100.00
51781;BME280;37844;57.126;24.288;2023-02-14T03:19:20;102541.81;;;2.41;100.00
51781;BME280;37844;57.126;24.288;2023-02-14T03:21:53;102541.16;;;2.43;100.00
51781;BME280;37844;57.126;24.288;2023-02-14T03:24:28;102552.66;;;2.38;100.00
51781;BME280;37844;57.126;24.288;2023-02-14T03:29:52;102536.84;;;2.42;100.00
51781;BME280;37844;57.126;24.288;2023-02-14T03:34:55;102542.25;;;2.35;100.00
51781;BME280;37844;57.126;24.288;2023-02-14T03:42:34;102543.44;;;2.28;100.00
51781;BME280;37844;57.126;24.288;2023-02-14T03:45:02;102553.72;;;2.30;100.00
51781;BME280;37844;57.126;24.288;2023-02-14T03:47:29;102548.56;;;2.40;100.00
51781;BME280;37844;57.126;24.288;2023-02-14T03:49:58;102549.00;;;2.46;100.00
51781;BME280;37844;57.126;24.288;2023-02-14T03:52:26;102547.13;;;2.44;100.00
51781;BME280;37844;57.126;24.288;2023-02-14T03:54:54;102546.25;;;2.43;100.00
51781;BME280;37844;57.126;24.288;2023-02-14T03:57:25;102555.53;;;2.43;100.00
51781;BME280;37844;57.126;24.288;2023-02-14T03:59:52;102558.63;;;2.39;100.00
51781;BME280;37844;57.126;24.288;2023-02-14T04:04:57;102573.31;;;2.31;100.00
51781;BME280;37844;57.126;24.288;2023-02-14T04:07:23;102581.75;;;2.42;100.00
51781;BME280;37844;57.126;24.288;2023-02-14T04:09:48;102583.41;;;2.41;100.00
51781;BME280;37844;57.126;24.288;2023-02-14T04:12:14;102596.63;;;2.25;100.00
51781;BME280;37844;57.126;24.288;2023-02-14T04:14:40;102588.22;;;2.26;100.00
51781;BME280;37844;57.126;24.288;2023-02-14T04:17:05;102587.69;;;2.30;100.00
51781;BME280;37844;57.126;24.288;2023-02-14T04:19:49;102594.03;;;2.36;100.00
51781;BME280;37844;57.126;24.288;2023-02-14T04:22:15;102601.19;;;2.29;100.00
51781;BME280;37844;57.126;24.288;2023-02-14T04:24:40;102600.66;;;2.33;100.00
51781;BME280;37844;57.126;24.288;2023-02-14T04:27:05;102603.50;;;2.26;100.00
51781;BME280;37844;57.126;24.288;2023-02-14T04:29:43;102612.13;;;2.28;100.00
51781;BME280;37844;57.126;24.288;2023-02-14T04:32:14;102617.44;;;2.31;100.00
51781;BME280;37844;57.126;24.288;2023-02-14T04:34:40;102608.41;;;2.35;100.00
51781;BME280;37844;57.126;24.288;2023-02-14T04:37:05;102611.72;;;2.34;100.00
51781;BME280;37844;57.126;24.288;2023-02-14T04:39:31;102613.28;;;2.44;100.00
51781;BME280;37844;57.126;24.288;2023-02-14T04:41:56;102627.06;;;2.24;100.00
51781;BME280;37844;57.126;24.288;2023-02-14T04:44:21;102617.63;;;2.23;100.00
51781;BME280;37844;57.126;24.288;2023-02-14T04:46:47;102621.44;;;2.28;100.00
51781;BME280;37844;57.126;24.288;2023-02-14T04:49:12;102623.06;;;2.27;100.00
51781;BME280;37844;57.126;24.288;2023-02-14T04:51:38;102635.78;;;2.27;100.00
51781;BME280;37844;57.126;24.288;2023-02-14T04:54:03;102641.44;;;2.23;100.00
51781;BME280;37844;57.126;24.288;2023-02-14T04:56:28;102650.47;;;2.20;100.00
51781;BME280;37844;57.126;24.288;2023-02-14T04:58:54;102659.41;;;2.15;100.00
51781;BME280;37844;57.126;24.288;2023-02-14T05:01:19;102660.28;;;2.15;100.00
51781;BME280;37844;57.126;24.288;2023-02-14T05:03:44;102666.56;;;2.08;100.00
51781;BME280;37844;57.126;24.288;2023-02-14T05:06:10;102663.06;;;2.18;100.00
51781;BME280;37844;57.126;24.288;2023-02-14T05:08:35;102678.59;;;2.21;100.00
51781;BME280;37844;57.126;24.288;2023-02-14T05:11:01;102672.00;;;2.13;100.00
51781;BME280;37844;57.126;24.288;2023-02-14T05:13:26;102683.19;;;2.15;100.00
51781;BME280;37844;57.126;24.288;2023-02-14T05:15:52;102694.38;;;2.17;100.00
51781;BME280;37844;57.126;24.288;2023-02-14T05:18:17;102714.31;;;2.23;100.00
51781;BME280;37844;57.126;24.288;2023-02-14T05:20:43;102712.97;;;2.16;100.00
51781;BME280;37844;57.126;24.288;2023-02-14T05:23:08;102705.44;;;2.18;100.00
51781;BME280;37844;57.126;24.288;2023-02-14T05:25:40;102704.31;;;2.14;100.00
51781;BME280;37844;57.126;24.288;2023-02-14T05:28:05;102703.16;;;2.10;100.00
51781;BME280;37844;57.126;24.288;2023-02-14T05:30:31;102697.06;;;2.08;100.00
51781;BME280;37844;57.126;24.288;2023-02-14T05:32:56;102701.13;;;2.17;100.00
51781;BME280;37844;57.126;24.288;2023-02-14T05:35:22;102699.09;;;2.12;100.00
51781;BME280;37844;57.126;24.288;2023-02-14T05:37:47;102698.97;;;2.11;100.00
51781;BME280;37844;57.126;24.288;2023-02-14T05:40:12;102709.13;;;2.11;100.00
51781;BME280;37844;57.126;24.288;2023-02-14T05:42:39;102707.22;;;2.19;100.00
51781;BME280;37844;57.126;24.288;2023-02-14T05:45:04;102714.44;;;2.24;100.00
51781;BME280;37844;57.126;24.288;2023-02-14T05:47:30;102723.13;;;2.16;100.00
51781;BME280;37844;57.126;24.288;2023-02-14T05:49:55;102720.75;;;2.07;100.00
51781;BME280;37844;57.126;24.288;2023-02-14T05:52:21;102724.91;;;2.17;100.00
51781;BME280;37844;57.126;24.288;2023-02-14T05:54:46;102717.88;;;2.25;100.00
51781;BME280;37844;57.126;24.288;2023-02-14T05:57:11;102723.50;;;2.21;100.00
51781;BME280;37844;57.126;24.288;2023-02-14T05:59:37;102736.47;;;2.24;100.00
51781;BME280;37844;57.126;24.288;2023-02-14T06:02:02;102746.91;;;2.17;100.00
51781;BME280;37844;57.126;24.288;2023-02-14T06:04:28;102732.97;;;2.33;100.00
51781;BME280;37844;57.126;24.288;2023-02-14T06:06:56;102732.47;;;2.38;100.00
51781;BME280;37844;57.126;24.288;2023-02-14T06:09:21;102732.81;;;2.42;100.00
51781;BME280;37844;57.126;24.288;2023-02-14T06:11:47;102750.81;;;2.55;100.00
51781;BME280;37844;57.126;24.288;2023-02-14T06:14:12;102753.75;;;2.72;100.00
51781;BME280;37844;57.126;24.288;2023-02-14T06:16:38;102743.44;;;2.70;100.00
51781;BME280;37844;57.126;24.288;2023-02-14T06:19:03;102732.88;;;2.76;100.00
51781;BME280;37844;57.126;24.288;2023-02-14T06:21:28;102733.94;;;2.90;100.00
51781;BME280;37844;57.126;24.288;2023-02-14T06:23:54;102741.53;;;3.12;100.00
51781;BME280;37844;57.126;24.288;2023-02-14T06:26:19;102748.88;;;3.31;100.00
51781;BME280;37844;57.126;24.288;2023-02-14T06:28:44;102755.13;;;3.58;100.00
51781;BME280;37844;57.126;24.288;2023-02-14T06:31:16;102758.16;;;3.88;100.00
51781;BME280;37844;57.126;24.288;2023-02-14T06:33:42;102753.81;;;3.87;100.00
51781;BME280;37844;57.126;24.288;2023-02-14T06:36:07;102766.34;;;4.07;100.00
51781;BME280;37844;57.126;24.288;2023-02-14T06:38:33;102769.13;;;4.10;100.00
51781;BME280;37844;57.126;24.288;2023-02-14T06:41:05;102766.56;;;4.10;100.00
51781;BME280;37844;57.126;24.288;2023-02-14T06:43:30;102764.13;;;4.23;100.00
51781;BME280;37844;57.126;24.288;2023-02-14T06:45:56;102769.13;;;4.22;100.00
51781;BME280;37844;57.126;24.288;2023-02-14T06:48:21;102775.00;;;4.33;100.00
51781;BME280;37844;57.126;24.288;2023-02-14T06:50:47;102773.25;;;4.68;100.00
51781;BME280;37844;57.126;24.288;2023-02-14T06:53:12;102773.88;;;4.78;100.00
51781;BME280;37844;57.126;24.288;2023-02-14T06:55:37;102779.59;;;4.99;100.00
51781;BME280;37844;57.126;24.288;2023-02-14T06:58:03;102779.19;;;5.31;100.00
51781;BME280;37844;57.126;24.288;2023-02-14T07:00:28;102767.00;;;5.65;100.00
51781;BME280;37844;57.126;24.288;2023-02-14T07:02:53;102765.56;;;6.22;100.00
51781;BME280;37844;57.126;24.288;2023-02-14T07:05:18;102763.88;;;6.64;100.00
51781;BME280;37844;57.126;24.288;2023-02-14T07:07:44;102765.56;;;6.92;100.00
51781;BME280;37844;57.126;24.288;2023-02-14T07:10:10;102769.53;;;7.30;100.00
51781;BME280;37844;57.126;24.288;2023-02-14T07:12:35;102771.38;;;7.17;100.00
51781;BME280;37844;57.126;24.288;2023-02-14T07:15:03;102779.97;;;6.90;100.00
51781;BME280;37844;57.126;24.288;2023-02-14T07:17:29;102771.78;;;6.95;100.00
51781;BME280;37844;57.126;24.288;2023-02-14T07:19:54;102777.59;;;7.36;100.00
51781;BME280;37844;57.126;24.288;2023-02-14T07:22:19;102783.66;;;7.23;100.00
51781;BME280;37844;57.126;24.288;2023-02-14T07:24:45;102791.56;;;7.41;100.00
51781;BME280;37844;57.126;24.288;2023-02-14T07:27:10;102803.16;;;7.49;100.00
51781;BME280;37844;57.126;24.288;2023-02-14T07:29:36;102814.47;;;7.38;100.00
51781;BME280;37844;57.126;24.288;2023-02-14T07:32:01;102808.22;;;7.48;100.00
51781;BME280;37844;57.126;24.288;2023-02-14T07:34:26;102798.56;;;7.88;100.00
51781;BME280;37844;57.126;24.288;2023-02-14T07:36:52;102806.25;;;8.03;100.00
51781;BME280;37844;57.126;24.288;2023-02-14T07:39:17;102810.75;;;8.22;100.00
51781;BME280;37844;57.126;24.288;2023-02-14T07:41:42;102804.50;;;7.87;100.00
51781;BME280;37844;57.126;24.288;2023-02-14T07:44:08;102800.75;;;7.97;100.00
51781;BME280;37844;57.126;24.288;2023-02-14T07:46:33;102806.53;;;8.07;100.00
51781;BME280;37844;57.126;24.288;2023-02-14T07:48:58;102810.19;;;8.27;100.00
51781;BME280;37844;57.126;24.288;2023-02-14T07:51:24;102810.59;;;8.04;100.00
51781;BME280;37844;57.126;24.288;2023-02-14T07:53:49;102816.47;;;8.47;100.00
51781;BME280;37844;57.126;24.288;2023-02-14T07:56:14;102812.81;;;8.75;100.00
51781;BME280;37844;57.126;24.288;2023-02-14T07:58:40;102808.66;;;8.94;100.00
51781;BME280;37844;57.126;24.288;2023-02-14T08:01:05;102806.97;;;8.94;100.00
51781;BME280;37844;57.126;24.288;2023-02-14T08:03:30;102809.94;;;9.18;100.00
51781;BME280;37844;57.126;24.288;2023-02-14T08:05:56;102805.75;;;9.20;100.00
51781;BME280;37844;57.126;24.288;2023-02-14T08:08:25;102825.66;;;9.57;100.00
51781;BME280;37844;57.126;24.288;2023-02-14T08:10:50;102817.97;;;9.75;100.00
51781;BME280;37844;57.126;24.288;2023-02-14T08:13:16;102821.69;;;9.98;100.00
51781;BME280;37844;57.126;24.288;2023-02-14T08:15:41;102828.38;;;10.12;99.03
51781;BME280;37844;57.126;24.288;2023-02-14T08:18:25;102831.00;;;9.96;97.84
51781;BME280;37844;57.126;24.288;2023-02-14T08:20:51;102839.00;;;10.36;96.65
51781;BME280;37844;57.126;24.288;2023-02-14T08:23:17;102837.09;;;10.88;93.49
51781;BME280;37844;57.126;24.288;2023-02-14T08:25:43;102833.41;;;11.41;89.73
51781;BME280;37844;57.126;24.288;2023-02-14T08:28:09;102829.06;;;12.45;85.39
51781;BME280;37844;57.126;24.288;2023-02-14T08:30:37;102835.94;;;13.13;82.04
51781;BME280;37844;57.126;24.288;2023-02-14T08:33:02;102840.34;;;14.17;78.19
51781;BME280;37844;57.126;24.288;2023-02-14T08:35:28;102836.44;;;14.57;74.69
51781;BME280;37844;57.126;24.288;2023-02-14T08:37:53;102845.53;;;15.35;72.37
51781;BME280;37844;57.126;24.288;2023-02-14T08:40:18;102838.25;;;17.03;68.14
51781;BME280;37844;57.126;24.288;2023-02-14T08:42:44;102834.47;;;17.33;63.95
51781;BME280;37844;57.126;24.288;2023-02-14T08:45:10;102843.94;;;17.75;61.55
51781;BME280;37844;57.126;24.288;2023-02-14T08:47:35;102848.63;;;18.55;59.05
51781;BME280;37844;57.126;24.288;2023-02-14T08:50:03;102847.19;;;18.15;57.51
51781;BME280;37844;57.126;24.288;2023-02-14T08:52:29;102856.69;;;18.71;54.95
51781;BME280;37844;57.126;24.288;2023-02-14T08:54:54;102857.16;;;17.86;54.10
51781;BME280;37844;57.126;24.288;2023-02-14T08:57:20;102866.94;;;17.97;53.60
51781;BME280;37844;57.126;24.288;2023-02-14T08:59:46;102867.03;;;18.04;53.01
51781;BME280;37844;57.126;24.288;2023-02-14T09:02:14;102865.59;;;18.22;51.81
51781;BME280;37844;57.126;24.288;2023-02-14T09:04:43;102869.94;;;18.23;51.56
51781;BME280;37844;57.126;24.288;2023-02-14T09:07:10;102877.56;;;18.10;51.18
51781;BME280;37844;57.126;24.288;2023-02-14T09:09:35;102874.78;;;18.57;50.24
51781;BME280;37844;57.126;24.288;2023-02-14T09:12:07;102879.66;;;17.33;50.24
51781;BME280;37844;57.126;24.288;2023-02-14T09:14:34;102885.03;;;16.97;51.17
51781;BME280;37844;57.126;24.288;2023-02-14T09:17:00;102893.38;;;17.23;50.90
51781;BME280;37844;57.126;24.288;2023-02-14T09:19:29;102896.06;;;16.11;51.67
51781;BME280;37844;57.126;24.288;2023-02-14T09:21:54;102894.75;;;16.28;52.10
51781;BME280;37844;57.126;24.288;2023-02-14T09:24:19;102895.41;;;17.38;51.62
51781;BME280;37844;57.126;24.288;2023-02-14T09:26:45;102899.84;;;17.44;50.66
51781;BME280;37844;57.126;24.288;2023-02-14T09:29:10;102902.91;;;16.80;50.71
51781;BME280;37844;57.126;24.288;2023-02-14T09:31:37;102906.31;;;17.19;50.82
51781;BME280;37844;57.126;24.288;2023-02-14T09:34:02;102909.84;;;16.80;51.19
51781;BME280;37844;57.126;24.288;2023-02-14T09:36:46;102915.59;;;17.04;50.74
51781;BME280;37844;57.126;24.288;2023-02-14T09:39:11;102916.50;;;17.06;50.55
51781;BME280;37844;57.126;24.288;2023-02-14T09:44:25;102916.56;;;15.97;51.67
51781;BME280;37844;57.126;24.288;2023-02-14T09:46:55;102924.25;;;15.94;51.41
51781;BME280;37844;57.126;24.288;2023-02-14T09:49:30;102922.50;;;15.93;51.52
51781;BME280;37844;57.126;24.288;2023-02-14T09:51:56;102927.72;;;15.93;51.78
51781;BME280;37844;57.126;24.288;2023-02-14T09:54:26;102927.41;;;15.81;51.83
51781;BME280;37844;57.126;24.288;2023-02-14T09:57:12;102917.59;;;16.40;51.55
51781;BME280;37844;57.126;24.288;2023-02-14T10:07:26;102927.00;;;14.76;52.97
51781;BME280;37844;57.126;24.288;2023-02-14T10:12:28;102935.41;;;12.96;57.75
51781;BME280;37844;57.126;24.288;2023-02-14T10:14:56;102932.41;;;13.08;58.13
51781;BME280;37844;57.126;24.288;2023-02-14T10:19:55;102939.28;;;11.80;60.23
51781;BME280;37844;57.126;24.288;2023-02-14T10:22:22;102940.38;;;12.25;61.20
51781;BME280;37844;57.126;24.288;2023-02-14T10:25:01;102945.19;;;11.38;61.84
51781;BME280;37844;57.126;24.288;2023-02-14T10:27:37;102949.41;;;11.36;63.65
51781;BME280;37844;57.126;24.288;2023-02-14T10:30:12;102943.69;;;11.24;64.32
51781;BME280;37844;57.126;24.288;2023-02-14T10:32:45;102941.94;;;11.05;65.34
51781;BME280;37844;57.126;24.288;2023-02-14T10:38:00;102937.50;;;11.01;66.23
51781;BME280;37844;57.126;24.288;2023-02-14T10:50:43;102929.88;;;9.98;70.68
51781;BME280;37844;57.126;24.288;2023-02-14T10:53:16;102927.56;;;9.86;72.75
51781;BME280;37844;57.126;24.288;2023-02-14T10:55:49;102927.59;;;9.70;74.22
51781;BME280;37844;57.126;24.288;2023-02-14T10:58:18;102930.97;;;9.85;75.38
51781;BME280;37844;57.126;24.288;2023-02-14T11:03:13;102942.31;;;9.56;74.33
51781;BME280;37844;57.126;24.288;2023-02-14T11:05:43;102946.91;;;9.45;75.21
51781;BME280;37844;57.126;24.288;2023-02-14T11:10:43;102946.97;;;9.14;79.20
51781;BME280;37844;57.126;24.288;2023-02-14T11:13:26;102947.38;;;9.22;79.68
51781;BME280;37844;57.126;24.288;2023-02-14T11:15:51;102942.19;;;9.05;81.06
51781;BME280;37844;57.126;24.288;2023-02-14T11:18:21;102949.56;;;8.83;81.29
51781;BME280;37844;57.126;24.288;2023-02-14T11:23:32;102948.41;;;8.63;81.55
51781;BME280;37844;57.126;24.288;2023-02-14T11:25:58;102945.78;;;8.46;82.29
51781;BME280;37844;57.126;24.288;2023-02-14T11:28:24;102943.44;;;8.06;83.89
51781;BME280;37844;57.126;24.288;2023-02-14T11:30:50;102947.00;;;8.23;85.71
51781;BME280;37844;57.126;24.288;2023-02-14T11:33:27;102956.00;;;8.02;85.12
51781;BME280;37844;57.126;24.288;2023-02-14T11:35:54;102960.13;;;7.85;86.76
51781;BME280;37844;57.126;24.288;2023-02-14T11:38:26;102951.06;;;8.05;87.98
51781;BME280;37844;57.126;24.288;2023-02-14T11:40:53;102959.16;;;7.83;86.99
51781;BME280;37844;57.126;24.288;2023-02-14T11:43:25;102958.28;;;7.82;88.73
51781;BME280;37844;57.126;24.288;2023-02-14T11:46:02;102959.41;;;7.73;89.77
51781;BME280;37844;57.126;24.288;2023-02-14T11:48:28;102966.09;;;7.84;90.98
51781;BME280;37844;57.126;24.288;2023-02-14T11:53:36;102956.28;;;8.06;90.13
51781;BME280;37844;57.126;24.288;2023-02-14T11:56:04;102964.28;;;7.83;91.16
51781;BME280;37844;57.126;24.288;2023-02-14T12:01:01;102968.97;;;7.75;90.59
51781;BME280;37844;57.126;24.288;2023-02-14T12:03:28;102974.47;;;7.25;91.54
51781;BME280;37844;57.126;24.288;2023-02-14T12:05:57;102974.06;;;7.32;94.57
51781;BME280;37844;57.126;24.288;2023-02-14T12:08:25;102972.81;;;7.12;94.19
51781;BME280;37844;57.126;24.288;2023-02-14T12:11:03;102971.31;;;7.16;94.26
51781;BME280;37844;57.126;24.288;2023-02-14T12:13:29;102967.81;;;6.87;96.91
51781;BME280;37844;57.126;24.288;2023-02-14T12:15:56;102979.31;;;7.20;98.25
51781;BME280;37844;57.126;24.288;2023-02-14T12:18:32;102970.44;;;7.29;98.52
51781;BME280;37844;57.126;24.288;2023-02-14T12:21:21;102971.13;;;7.26;97.08
51781;BME280;37844;57.126;24.288;2023-02-14T12:26:16;102964.16;;;6.97;99.21
51781;BME280;37844;57.126;24.288;2023-02-14T12:28:47;102964.72;;;7.06;100.00
51781;BME280;37844;57.126;24.288;2023-02-14T12:31:15;102964.25;;;6.98;100.00
51781;BME280;37844;57.126;24.288;2023-02-14T12:33:40;102961.41;;;6.94;100.00
51781;BME280;37844;57.126;24.288;2023-02-14T12:36:13;102959.34;;;6.88;100.00
51781;BME280;37844;57.126;24.288;2023-02-14T12:47:11;102943.34;;;6.92;100.00
51781;BME280;37844;57.126;24.288;2023-02-14T12:54:50;102953.81;;;6.29;100.00
51781;BME280;37844;57.126;24.288;2023-02-14T13:00:03;102961.75;;;6.20;100.00
51781;BME280;37844;57.126;24.288;2023-02-14T13:05:00;102974.81;;;6.11;100.00
51781;BME280;37844;57.126;24.288;2023-02-14T13:12:39;102975.88;;;5.77;100.00
51781;BME280;37844;57.126;24.288;2023-02-14T13:17:40;102980.88;;;5.26;100.00
51781;BME280;37844;57.126;24.288;2023-02-14T13:22:32;102982.19;;;5.45;100.00
51781;BME280;37844;57.126;24.288;2023-02-14T13:25:08;102980.97;;;5.40;100.00
51781;BME280;37844;57.126;24.288;2023-02-14T13:27:37;102985.66;;;5.34;100.00
51781;BME280;37844;57.126;24.288;2023-02-14T13:30:05;102987.19;;;5.43;100.00
51781;BME280;37844;57.126;24.288;2023-02-14T13:32:39;102988.41;;;5.48;100.00
51781;BME280;37844;57.126;24.288;2023-02-14T13:35:05;102993.66;;;5.38;100.00
51781;BME280;37844;57.126;24.288;2023-02-14T13:37:31;102996.59;;;5.07;100.00
51781;BME280;37844;57.126;24.288;2023-02-14T13:40:05;103010.50;;;4.87;100.00
51781;BME280;37844;57.126;24.288;2023-02-14T13:42:48;103002.69;;;5.09;100.00
51781;BME280;37844;57.126;24.288;2023-02-14T13:48:09;103001.28;;;5.13;100.00
51781;BME280;37844;57.126;24.288;2023-02-14T13:50:36;103000.69;;;5.17;100.00
51781;BME280;37844;57.126;24.288;2023-02-14T13:53:02;103003.69;;;5.12;100.00
51781;BME280;37844;57.126;24.288;2023-02-14T13:55:31;103011.16;;;4.97;100.00
51781;BME280;37844;57.126;24.288;2023-02-14T13:57:59;103006.91;;;4.62;100.00
51781;BME280;37844;57.126;24.288;2023-02-14T14:00:35;103011.47;;;4.54;100.00
51781;BME280;37844;57.126;24.288;2023-02-14T14:03:01;103018.78;;;4.50;100.00
51781;BME280;37844;57.126;24.288;2023-02-14T14:11:02;103017.34;;;4.08;100.00
51781;BME280;37844;57.126;24.288;2023-02-14T14:18:48;103012.56;;;3.78;100.00
51781;BME280;37844;57.126;24.288;2023-02-14T14:21:14;103013.72;;;3.94;100.00
51781;BME280;37844;57.126;24.288;2023-02-14T14:24:00;103012.94;;;3.83;100.00
51781;BME280;37844;57.126;24.288;2023-02-14T14:26:28;103014.06;;;3.65;100.00
51781;BME280;37844;57.126;24.288;2023-02-14T14:28:54;103009.41;;;3.49;100.00
51781;BME280;37844;57.126;24.288;2023-02-14T14:31:20;103017.00;;;3.37;100.00
51781;BME280;37844;57.126;24.288;2023-02-14T14:33:46;103021.91;;;3.46;100.00
51781;BME280;37844;57.126;24.288;2023-02-14T14:36:21;103013.75;;;3.50;100.00
51781;BME280;37844;57.126;24.288;2023-02-14T14:38:47;103017.47;;;3.43;100.00
51781;BME280;37844;57.126;24.288;2023-02-14T14:41:27;103018.25;;;3.42;100.00
51781;BME280;37844;57.126;24.288;2023-02-14T14:44:00;103020.44;;;3.37;100.00
51781;BME280;37844;57.126;24.288;2023-02-14T14:46:25;103025.28;;;3.34;100.00
51781;BME280;37844;57.126;24.288;2023-02-14T14:48:51;103019.22;;;3.22;100.00